createdAt,value
2024-02-12T00:00:21.061Z,81.69
2024-02-12T00:03:25.734Z,81.71
2024-02-12T00:06:28.661Z,82.67
2024-02-12T00:09:31.558Z,82.42
2024-02-12T00:12:34.844Z,82.97
2024-02-12T00:15:44.095Z,82.64
2024-02-12T00:18:47.889Z,82.79
2024-02-12T00:21:59.294Z,82.68
2024-02-12T00:25:06.409Z,82.98
2024-02-12T00:28:09.070Z,82.73
2024-02-12T00:31:13.723Z,83.56
2024-02-12T00:34:16.395Z,84.19
2024-02-12T00:37:19.166Z,83.08
2024-02-12T00:40:21.836Z,84.09
2024-02-12T00:43:23.906Z,83.28
2024-02-12T00:46:26.284Z,82.99
2024-02-12T00:49:28.699Z,83.36
2024-02-12T00:52:31.104Z,84.21
2024-02-12T00:55:34.122Z,83.53
2024-02-12T00:58:36.537Z,84.72
2024-02-12T01:01:39.272Z,84.56
2024-02-12T01:04:41.851Z,84.41
2024-02-12T01:07:44.388Z,84.60
2024-02-12T01:10:48.223Z,84.49
2024-02-12T01:13:51.161Z,84.92
2024-02-12T01:16:55.007Z,84.20
2024-02-12T01:19:57.588Z,85.04
2024-02-12T01:23:00.441Z,84.45
2024-02-12T01:26:02.673Z,85.12
2024-02-12T01:29:05.379Z,84.88
2024-02-12T01:32:08.768Z,84.99
2024-02-12T01:35:12.434Z,85.49
2024-02-12T01:38:15.547Z,85.61
2024-02-12T01:41:18.239Z,85.72
2024-02-12T01:44:22.022Z,86.15
2024-02-12T01:47:25.672Z,86.12
2024-02-12T01:50:28.840Z,86.71
2024-02-12T01:53:31.642Z,86.47
2024-02-12T01:56:34.955Z,86.16
2024-02-12T01:59:39.602Z,86.69
2024-02-12T02:02:46.315Z,87.14
2024-02-12T02:05:48.985Z,86.90
2024-02-12T02:08:51.860Z,87.23
2024-02-12T02:11:54.190Z,86.28
2024-02-12T02:14:56.937Z,86.75
2024-02-12T02:17:59.763Z,87.44
2024-02-12T02:21:02.557Z,87.83
2024-02-12T02:24:04.997Z,88.12
2024-02-12T02:27:08.762Z,87.85
2024-02-12T02:30:14.254Z,88.42
2024-02-12T02:33:18.195Z,88.07
2024-02-12T02:36:20.939Z,87.97
2024-02-12T02:39:23.226Z,87.82
2024-02-12T02:42:26.643Z,87.97
2024-02-12T02:45:28.770Z,87.62
2024-02-12T02:48:34.076Z,87.40
2024-02-12T02:51:38.044Z,87.47
2024-02-12T02:54:40.453Z,86.61
2024-02-12T02:57:42.890Z,86.45
2024-02-12T03:00:46.589Z,86.09
2024-02-12T03:03:51.882Z,85.78
2024-02-12T03:06:54.326Z,85.96
2024-02-12T03:09:56.591Z,85.71
2024-02-12T03:12:59.098Z,85.83
2024-02-12T03:16:02.046Z,85.59
2024-02-12T03:19:06.522Z,85.88
2024-02-12T03:22:09.439Z,86.20
2024-02-12T03:25:12.494Z,85.92
2024-02-12T03:28:14.699Z,85.71
2024-02-12T03:31:17.258Z,85.54
2024-02-12T03:34:19.644Z,86.15
2024-02-12T03:37:22.304Z,86.86
2024-02-12T03:40:29.424Z,87.21
2024-02-12T03:43:32.447Z,87.19
2024-02-12T03:46:39.626Z,86.72
2024-02-12T03:50:00.866Z,86.89
2024-02-12T03:53:22.600Z,87.25
2024-02-12T03:56:43.741Z,87.41
2024-02-12T03:59:55.253Z,87.55
2024-02-12T04:02:59.899Z,87.83
2024-02-12T04:06:05.442Z,87.70
2024-02-12T04:09:10.127Z,87.83
2024-02-12T04:12:13.004Z,87.52
2024-02-12T04:15:17.172Z,87.29
2024-02-12T04:18:21.349Z,87.34
2024-02-12T04:21:23.764Z,87.30
2024-02-12T04:24:29.744Z,86.94
2024-02-12T04:27:32.338Z,87.33
2024-02-12T04:30:34.684Z,86.97
2024-02-12T04:33:38.750Z,87.29
2024-02-12T04:36:43.152Z,87.03
2024-02-12T04:39:45.319Z,87.22
2024-02-12T04:42:49.346Z,87.19
2024-02-12T04:45:53.238Z,87.26
2024-02-12T04:48:58.323Z,86.83
2024-02-12T04:52:00.517Z,86.37
2024-02-12T04:55:02.903Z,86.33
2024-02-12T04:58:05.744Z,86.54
2024-02-12T05:01:09.574Z,86.69
2024-02-12T05:04:12.563Z,86.16
2024-02-12T05:07:15.989Z,86.34
2024-02-12T05:10:18.058Z,86.27
2024-02-12T05:13:20.646Z,86.37
2024-02-12T05:16:31.838Z,86.71
2024-02-12T05:19:52.931Z,86.99
2024-02-12T05:22:55.153Z,87.00
2024-02-12T05:25:58.146Z,86.71
2024-02-12T05:29:00.744Z,86.01
2024-02-12T05:32:03.310Z,86.24
2024-02-12T05:35:05.698Z,86.02
2024-02-12T05:38:08.044Z,86.30
2024-02-12T05:41:10.251Z,86.32
2024-02-12T05:44:12.772Z,85.65
2024-02-12T05:47:14.944Z,85.50
2024-02-12T05:50:18.454Z,85.74
2024-02-12T05:53:20.645Z,85.42
2024-02-12T05:56:23.180Z,85.62
2024-02-12T05:59:25.825Z,85.30
2024-02-12T06:02:28.318Z,85.17
2024-02-12T06:05:30.963Z,84.98
2024-02-12T06:08:33.365Z,84.63
2024-02-12T06:11:35.941Z,84.60
2024-02-12T06:14:39.520Z,84.68
2024-02-12T06:17:43.202Z,84.71
2024-02-12T06:20:45.575Z,84.50
2024-02-12T06:23:48.125Z,84.88
2024-02-12T06:26:51.198Z,84.25
2024-02-12T06:29:55.701Z,84.65
2024-02-12T06:32:57.977Z,84.19
2024-02-12T06:36:03.077Z,84.14
2024-02-12T06:39:06.367Z,84.17
2024-02-12T06:42:08.761Z,84.09
2024-02-12T06:45:11.059Z,84.29
2024-02-12T06:48:13.863Z,84.04
2024-02-12T06:51:18.409Z,83.67
2024-02-12T06:54:21.267Z,83.84
2024-02-12T06:57:25.166Z,84.42
2024-02-12T07:00:27.522Z,83.77
2024-02-12T07:03:30.387Z,83.15
2024-02-12T07:06:32.874Z,83.13
2024-02-12T07:09:37.610Z,83.20
2024-02-12T07:12:40.196Z,83.92
2024-02-12T07:15:43.245Z,84.03
2024-02-12T07:18:46.330Z,84.40
2024-02-12T07:21:48.693Z,84.38
2024-02-12T07:24:52.620Z,84.47
2024-02-12T07:27:54.802Z,84.51
2024-02-12T07:30:57.532Z,84.50
2024-02-12T07:34:01.716Z,83.90
2024-02-12T07:37:04.386Z,82.67
2024-02-12T07:40:12.200Z,82.72
2024-02-12T07:43:15.452Z,82.44
2024-02-12T07:46:17.536Z,81.96
2024-02-12T07:49:23.072Z,81.18
2024-02-12T07:52:25.159Z,81.51
2024-02-12T07:55:28.335Z,80.82
2024-02-12T07:58:30.521Z,80.54
2024-02-12T08:01:33.172Z,79.79
2024-02-12T08:04:35.565Z,78.53
2024-02-12T08:07:51.530Z,78.56
2024-02-12T08:11:00.173Z,78.80
2024-02-12T08:14:03.062Z,78.10
2024-02-12T08:17:06.101Z,77.75
2024-02-12T08:20:09.632Z,77.23
2024-02-12T08:23:12.313Z,77.61
2024-02-12T08:26:14.512Z,77.41
2024-02-12T08:29:17.110Z,77.17
2024-02-12T08:32:19.957Z,77.51
2024-02-12T08:35:22.654Z,77.06
2024-02-12T08:38:25.153Z,77.03
2024-02-12T08:41:27.905Z,76.89
2024-02-12T08:44:32.978Z,76.67
2024-02-12T08:47:35.925Z,77.40
2024-02-12T08:50:38.084Z,76.74
2024-02-12T08:53:46.656Z,77.20
2024-02-12T08:56:48.939Z,77.01
2024-02-12T08:59:51.543Z,77.38
2024-02-12T09:02:54.523Z,76.64
2024-02-12T09:05:57.039Z,76.79
2024-02-12T09:08:59.636Z,76.01
2024-02-12T09:12:02.415Z,75.39
2024-02-12T09:15:11.642Z,75.20
2024-02-12T09:18:14.155Z,74.39
2024-02-12T09:21:16.309Z,74.27
2024-02-12T09:24:19.491Z,74.14
2024-02-12T09:27:21.677Z,74.14
2024-02-12T09:30:24.246Z,73.80
2024-02-12T09:33:26.838Z,74.17
2024-02-12T09:36:29.773Z,73.35
2024-02-12T09:39:32.355Z,73.11
2024-02-12T09:42:34.864Z,72.62
2024-02-12T09:45:41.673Z,71.89
2024-02-12T09:48:44.327Z,71.60
2024-02-12T09:51:50.865Z,71.67
2024-02-12T09:54:54.011Z,71.30
2024-02-12T09:57:56.175Z,71.58
2024-02-12T10:00:59.827Z,70.79
2024-02-12T10:04:03.091Z,70.87
2024-02-12T10:07:06.515Z,70.99
2024-02-12T10:10:10.132Z,69.99
2024-02-12T10:13:13.089Z,70.20
2024-02-12T10:16:15.486Z,69.30
2024-02-12T10:19:17.699Z,69.52
2024-02-12T10:22:21.382Z,68.99
2024-02-12T10:25:24.461Z,68.80
2024-02-12T10:28:27.228Z,68.87
2024-02-12T10:31:29.823Z,68.58
2024-02-12T10:34:34.453Z,68.22
2024-02-12T10:37:36.867Z,68.69
2024-02-12T10:40:45.711Z,68.00
2024-02-12T10:43:48.754Z,67.98
2024-02-12T10:46:51.444Z,67.86
2024-02-12T10:49:53.726Z,66.57
2024-02-12T10:52:56.358Z,66.61
2024-02-12T10:55:58.687Z,66.95
2024-02-12T10:59:01.165Z,66.67
2024-02-12T11:02:13.004Z,66.43
2024-02-12T11:05:18.253Z,66.05
2024-02-12T11:08:21.487Z,66.20
2024-02-12T11:11:29.569Z,66.96
2024-02-12T11:14:34.948Z,66.87
2024-02-12T11:17:37.715Z,66.61
2024-02-12T11:20:50.759Z,66.83
2024-02-12T11:24:02.547Z,67.10
2024-02-12T11:27:09.920Z,66.95
2024-02-12T11:30:12.732Z,66.69
2024-02-12T11:33:15.882Z,66.52
2024-02-12T11:36:18.764Z,66.37
2024-02-12T11:39:21.076Z,66.65
2024-02-12T11:42:24.644Z,66.86
2024-02-12T11:45:26.843Z,66.49
2024-02-12T11:48:30.129Z,66.73
2024-02-12T11:51:34.517Z,65.87
2024-02-12T11:54:37.022Z,66.49
2024-02-12T11:57:40.162Z,66.23
2024-02-12T12:00:42.813Z,66.41
2024-02-12T12:03:46.137Z,66.09
2024-02-12T12:06:48.686Z,66.50
2024-02-12T12:10:00.744Z,66.23
2024-02-12T12:13:03.202Z,66.15
2024-02-12T12:16:05.733Z,66.16
2024-02-12T12:19:08.417Z,66.15
2024-02-12T12:22:18.743Z,66.06
2024-02-12T12:25:20.963Z,65.68
2024-02-12T12:28:25.019Z,65.79
2024-02-12T12:31:27.903Z,66.01
2024-02-12T12:34:30.643Z,65.79
2024-02-12T12:37:33.060Z,65.91
2024-02-12T12:40:35.444Z,66.02
2024-02-12T12:43:38.016Z,65.67
2024-02-12T12:46:40.587Z,64.98
2024-02-12T12:49:42.864Z,65.41
2024-02-12T12:52:45.466Z,65.22
2024-02-12T12:55:49.067Z,64.40
2024-02-12T12:58:51.767Z,64.23
2024-02-12T13:01:53.848Z,64.18
2024-02-12T13:04:56.427Z,63.95
2024-02-12T13:08:17.683Z,64.12
2024-02-12T13:11:21.692Z,63.52
2024-02-12T13:14:24.213Z,64.36
2024-02-12T13:17:28.370Z,64.41
2024-02-12T13:20:30.998Z,64.50
2024-02-12T13:23:34.024Z,64.63
2024-02-12T13:26:36.817Z,64.72
2024-02-12T13:29:45.568Z,64.22
2024-02-12T13:32:49.055Z,64.61
2024-02-12T13:35:52.446Z,64.69
2024-02-12T13:38:56.319Z,64.85
2024-02-12T13:41:58.779Z,64.69
2024-02-12T13:45:00.959Z,64.73
2024-02-12T13:48:04.097Z,65.01
2024-02-12T13:51:06.512Z,65.37
2024-02-12T13:54:09.024Z,65.35
2024-02-12T13:57:11.115Z,65.45
2024-02-12T14:00:37.866Z,65.19
2024-02-12T14:03:43.914Z,65.08
2024-02-12T14:06:46.615Z,65.36
2024-02-12T14:09:49.170Z,65.23
2024-02-12T14:12:51.561Z,65.69
2024-02-12T14:16:05.706Z,65.96
2024-02-12T14:19:12.961Z,66.25
2024-02-12T14:22:16.365Z,65.80
2024-02-12T14:25:19.145Z,65.65
2024-02-12T14:28:21.940Z,65.85
2024-02-12T14:31:25.009Z,65.53
2024-02-12T14:37:32.270Z,65.49
2024-02-12T14:40:34.684Z,65.71
2024-02-12T14:43:37.106Z,65.58
2024-02-12T14:46:39.837Z,65.30
2024-02-12T14:49:45.790Z,65.41
2024-02-12T14:52:50.240Z,65.29
2024-02-12T14:55:52.368Z,65.48
2024-02-12T14:58:54.790Z,65.57
2024-02-12T15:01:57.360Z,64.74
2024-02-12T15:05:00.222Z,64.76
2024-02-12T15:08:02.451Z,64.94
2024-02-12T15:11:09.186Z,64.82
2024-02-12T15:14:11.301Z,64.99
2024-02-12T15:17:17.234Z,64.71
2024-02-12T15:20:23.222Z,65.15
2024-02-12T15:23:25.810Z,64.92
2024-02-12T15:26:27.990Z,64.93
2024-02-12T15:29:31.281Z,64.16
2024-02-12T15:32:34.963Z,64.25
2024-02-12T15:35:37.463Z,64.02
2024-02-12T15:38:39.710Z,64.35
2024-02-12T15:41:42.283Z,64.29
2024-02-12T15:44:44.561Z,64.40
2024-02-12T15:47:48.057Z,63.97
2024-02-12T15:50:50.607Z,63.70
2024-02-12T15:53:53.159Z,63.98
2024-02-12T15:56:57.048Z,63.86
2024-02-12T15:59:59.878Z,64.08
2024-02-12T16:03:03.009Z,64.25
2024-02-12T16:06:15.175Z,64.30
2024-02-12T16:09:18.942Z,64.33
2024-02-12T16:12:23.779Z,64.39
2024-02-12T16:15:25.972Z,65.12
2024-02-12T16:18:32.812Z,65.00
2024-02-12T16:21:35.044Z,65.24
2024-02-12T16:24:38.022Z,65.30
2024-02-12T16:27:40.945Z,65.39
2024-02-12T16:30:44.508Z,65.51
2024-02-12T16:33:47.030Z,65.72
2024-02-12T16:36:49.538Z,65.47
2024-02-12T16:39:53.595Z,65.79
2024-02-12T16:42:56.227Z,66.08
2024-02-12T16:45:58.399Z,65.98
2024-02-12T16:49:00.971Z,66.06
2024-02-12T16:52:04.031Z,65.83
2024-02-12T16:55:06.654Z,65.82
2024-02-12T16:58:09.404Z,66.50
2024-02-12T17:01:13.007Z,66.21
2024-02-12T17:04:15.205Z,66.18
2024-02-12T17:07:20.226Z,66.23
2024-02-12T17:10:24.382Z,66.61
2024-02-12T17:13:28.839Z,66.58
2024-02-12T17:16:39.060Z,66.52
2024-02-12T17:19:47.536Z,66.60
2024-02-12T17:22:49.918Z,66.93
2024-02-12T17:25:52.593Z,66.85
2024-02-12T17:28:54.743Z,67.45
2024-02-12T17:31:57.091Z,67.01
2024-02-12T17:34:59.297Z,66.68
2024-02-12T17:38:01.670Z,66.41
2024-02-12T17:41:04.000Z,66.53
2024-02-12T17:44:06.827Z,66.57
2024-02-12T17:47:09.308Z,66.68
2024-02-12T17:50:11.880Z,66.45
2024-02-12T17:53:14.046Z,66.86
2024-02-12T17:56:16.556Z,67.01
2024-02-12T17:59:18.743Z,66.85
2024-02-12T18:02:21.482Z,66.99
2024-02-12T18:05:24.285Z,66.65
2024-02-12T18:08:26.897Z,66.48
2024-02-12T18:11:29.648Z,66.43
2024-02-12T18:14:31.796Z,66.37
2024-02-12T18:17:34.395Z,66.35
2024-02-12T18:20:37.271Z,66.30
2024-02-12T18:23:39.844Z,66.45
2024-02-12T18:26:42.225Z,66.39
2024-02-12T18:29:46.762Z,66.32
2024-02-12T18:32:49.689Z,66.47
2024-02-12T18:35:53.514Z,66.47
2024-02-12T18:38:56.447Z,66.52
2024-02-12T18:41:59.003Z,66.77
2024-02-12T18:45:02.367Z,66.64
2024-02-12T18:48:07.458Z,66.25
2024-02-12T18:51:09.753Z,66.49
2024-02-12T18:54:12.175Z,67.29
2024-02-12T18:57:14.383Z,67.12
2024-02-12T19:00:17.493Z,67.06
2024-02-12T19:03:22.107Z,66.76
2024-02-12T19:06:25.164Z,66.71
2024-02-12T19:09:27.859Z,66.92
2024-02-12T19:12:30.551Z,67.55
2024-02-12T19:15:32.812Z,67.64
2024-02-12T19:18:35.417Z,67.50
2024-02-12T19:21:39.930Z,67.20
2024-02-12T19:24:46.686Z,67.55
2024-02-12T19:27:48.910Z,67.52
2024-02-12T19:30:51.392Z,67.51
2024-02-12T19:33:53.614Z,67.50
2024-02-12T19:36:58.607Z,67.49
2024-02-12T19:40:03.405Z,67.11
2024-02-12T19:43:06.259Z,67.04
2024-02-12T19:46:08.432Z,67.37
2024-02-12T19:49:12.421Z,67.09
2024-02-12T19:52:14.536Z,67.29
2024-02-12T19:55:18.260Z,67.30
2024-02-12T19:58:21.610Z,67.05
2024-02-12T20:01:24.227Z,67.05
2024-02-12T20:04:27.702Z,66.99
2024-02-12T20:07:29.820Z,66.95
2024-02-12T20:10:32.251Z,67.00
2024-02-12T20:13:34.573Z,67.01
2024-02-12T20:16:36.965Z,66.50
2024-02-12T20:19:42.172Z,66.19
2024-02-12T20:22:44.866Z,66.21
2024-02-12T20:25:47.789Z,65.75
2024-02-12T20:28:50.317Z,65.75
2024-02-12T20:31:52.374Z,65.36
2024-02-12T20:34:55.290Z,65.38
2024-02-12T20:37:57.552Z,65.37
2024-02-12T20:40:59.972Z,65.23
2024-02-12T20:44:02.585Z,65.25
2024-02-12T20:47:05.079Z,64.87
2024-02-12T20:50:10.168Z,64.93
2024-02-12T20:53:13.167Z,64.81
2024-02-12T20:56:15.840Z,64.62
2024-02-12T20:59:19.446Z,64.65
2024-02-12T21:02:21.615Z,64.72
2024-02-12T21:05:24.612Z,64.54
2024-02-12T21:08:26.758Z,64.40
2024-02-12T21:11:30.355Z,64.11
2024-02-12T21:14:35.463Z,64.26
2024-02-12T21:17:38.242Z,64.51
2024-02-12T21:20:42.305Z,64.26
2024-02-12T21:23:45.087Z,64.31
2024-02-12T21:26:47.222Z,64.32
2024-02-12T21:29:50.966Z,64.27
2024-02-12T21:32:53.218Z,64.41
2024-02-12T21:35:57.083Z,64.33
2024-02-12T21:38:59.234Z,64.21
2024-02-12T21:42:09.601Z,64.03
2024-02-12T21:45:12.337Z,64.24
2024-02-12T21:48:14.955Z,64.28
2024-02-12T21:51:17.514Z,64.26
2024-02-12T21:54:19.950Z,64.54
2024-02-12T21:57:24.974Z,64.44
2024-02-12T22:00:29.245Z,64.16
2024-02-12T22:03:31.968Z,64.00
2024-02-12T22:06:34.696Z,64.11
2024-02-12T22:09:39.586Z,64.24
2024-02-12T22:12:43.784Z,64.06
2024-02-12T22:15:47.038Z,64.01
2024-02-12T22:18:49.261Z,64.36
2024-02-12T22:21:51.822Z,64.60
2024-02-12T22:24:53.920Z,64.68
2024-02-12T22:27:56.368Z,64.76
2024-02-12T22:30:58.417Z,64.47
2024-02-12T22:34:00.930Z,64.38
2024-02-12T22:37:03.243Z,64.29
2024-02-12T22:40:06.150Z,64.62
2024-02-12T22:43:09.172Z,64.47
2024-02-12T22:46:14.627Z,64.36
2024-02-12T22:49:17.211Z,64.59
2024-02-12T22:52:20.436Z,64.59
2024-02-12T22:55:23.485Z,64.49
2024-02-12T22:58:25.928Z,64.41
2024-02-12T23:01:28.152Z,64.42
2024-02-12T23:04:32.147Z,64.80
2024-02-12T23:07:34.635Z,64.56
2024-02-12T23:10:37.369Z,65.02
2024-02-12T23:13:39.832Z,64.92
2024-02-12T23:16:42.383Z,64.92
2024-02-12T23:19:45.351Z,65.01
2024-02-12T23:22:47.759Z,65.28
2024-02-12T23:25:49.981Z,65.22
2024-02-12T23:28:52.343Z,65.19
2024-02-12T23:31:54.397Z,65.00
2024-02-12T23:34:56.961Z,65.06
2024-02-12T23:38:00.107Z,65.32
2024-02-12T23:41:03.337Z,65.39
2024-02-12T23:44:05.591Z,65.62
2024-02-12T23:47:08.361Z,65.45
2024-02-12T23:50:13.247Z,65.57
2024-02-12T23:53:16.853Z,65.38
2024-02-12T23:59:25.454Z,65.57
